Perlez / Telecka

RS-0071 · Vojvodina, Serbia

使用的METAR站距离机场26 km。
罗盘
风向 的 风向 的 风向 到 风向 250° Perlez / Telecka 18/36
风: 3 kt, 1 beaufort

1 kt

3 kt
改变
0 ft 1.000 2.000 3.000 4.000 5.000
CAVOK
METAR LYBT 220600Z 25003KT 220V290 CAVOK 23/21 Q1011 NOSIG

METAR Perlez / Telecka - RS-0071

Perlez / Telecka是,Serbia中的超轻型飞机场。 该机场位于纬度45,16222和经度20,31111。 该机场有一条跑道: 18/36. 这个机场没有ICAO代码,我们使用RS-0071作为参考。 机场在Beograd FIR中。

该航空气象观测是针对Batajnica Air Base在2024年7月22日 08:00, 当地时间进行的。

机场观察

风向为250°,速度为3 kt。 风向在220°和290°之间变化。

天气为CAVOK。这意味着在5.000 ft或MSA(最低安全高度)以下(以较高者为准)以下没有云。这也意味着没有观测到积雨云或高耸的积云,可见度为10 km 或者更多或更高。此外,不会有雾,降雨或其他重要天气。

温度和风寒是23 °C。 露点为21 °C,相对湿度为89%。 海平面上的气压为1011 hPa (QNH)。

白天

今天,太阳从05:13升起,在20:17降落。 这适用于Perlez / Telecka,世界夏令时可能有所不同。 当地时间与世界标准时间之间的时差为+2 小时。 夏令时目前正在进行中。

公司介绍

我们没有关于这个机场的公司信息。

体会

到Vliegles.nl去找飞行课程,跳伞和其他飞行体验。 浏览页面,了解Perlez / Telecka附近所有可用的活动。 你也可以使用搜索功能来寻找你所在地附近的特定飞行课程、跳伞或其他飞行体验。

跑道

Id 标题 侧风 逆风 侧风 %
18/36 177°-357° 3 kt 96 %

逆风成分最大的方向会被突出显示,并用于横风计算。 这并不一定意味着这个方向在使用。

温度 & 天气

温度 23 °C
露点 21 °C
相对湿度 89%
Kp-index 0 (0-9)

白天

日出
05:14
中午
12:45
日落
20:16 (11:58)

小工具

你想在你的网站上有一个关于Perlez / Telecka的当前航空天气(METAR)的小部件吗?

显示HTML代码
报告变更